Terminal Aerodrome Forecast
Issued by NWS

Home | Current Version | Previous Version | Text Only | Print | Product List | Glossary On
Versions: 1 2 3 4 5 6 7 8 9 10 11 12 13
000
FTPA31 PHFO 262330 AAC
TAFHJH
TAF AMD
PHJH 262330Z 2700/2724 05015G23KT P6SM FEW030 SCT045
     FM270500 08008KT P6SM VCSH FEW030 SCT045
     FM272100 05015G23KT P6SM FEW030 SCT045
      AMD NOT SKED AFT 270400=

USA.gov is the U.S. government's official web portal to all federal, state and local government web resources and services.